sensor_id;sensor_type;location;lat;lon;timestamp;pressure;altitude;pressure_sealevel;temperature;humidity
73842;BME280;62184;52.006;5.924;2023-11-21T00:01:32;100305.91;;;14.67;85.88
73842;BME280;62184;52.006;5.924;2023-11-21T00:04:01;100296.03;;;14.68;85.93
73842;BME280;62184;52.006;5.924;2023-11-21T00:06:28;100295.16;;;14.67;85.69
73842;BME280;62184;52.006;5.924;2023-11-21T00:08:54;100300.69;;;14.64;85.60
73842;BME280;62184;52.006;5.924;2023-11-21T00:11:20;100299.97;;;14.61;85.87
73842;BME280;62184;52.006;5.924;2023-11-21T00:13:47;100309.91;;;14.59;85.68
73842;BME280;62184;52.006;5.924;2023-11-21T00:16:13;100309.34;;;14.52;85.87
73842;BME280;62184;52.006;5.924;2023-11-21T00:18:40;100318.50;;;14.48;85.82
73842;BME280;62184;52.006;5.924;2023-11-21T00:21:09;100319.34;;;14.48;85.89
73842;BME280;62184;52.006;5.924;2023-11-21T00:23:35;100322.91;;;14.49;85.89
73842;BME280;62184;52.006;5.924;2023-11-21T00:26:01;100311.16;;;14.51;86.11
73842;BME280;62184;52.006;5.924;2023-11-21T00:28:28;100312.97;;;14.51;85.88
73842;BME280;62184;52.006;5.924;2023-11-21T00:30:54;100322.75;;;14.52;86.17
73842;BME280;62184;52.006;5.924;2023-11-21T00:33:21;100318.25;;;14.52;85.60
73842;BME280;62184;52.006;5.924;2023-11-21T00:35:47;100314.66;;;14.53;86.10
73842;BME280;62184;52.006;5.924;2023-11-21T00:38:16;100316.09;;;14.61;85.87
73842;BME280;62184;52.006;5.924;2023-11-21T00:40:42;100321.34;;;14.64;85.89
73842;BME280;62184;52.006;5.924;2023-11-21T00:43:09;100318.25;;;14.71;86.19
73842;BME280;62184;52.006;5.924;2023-11-21T00:45:35;100324.25;;;14.76;86.18
73842;BME280;62184;52.006;5.924;2023-11-21T00:48:02;100324.19;;;14.78;86.05
73842;BME280;62184;52.006;5.924;2023-11-21T00:50:29;100332.00;;;14.82;86.27
73842;BME280;62184;52.006;5.924;2023-11-21T00:52:55;100334.69;;;14.82;86.18
73842;BME280;62184;52.006;5.924;2023-11-21T00:55:24;100323.94;;;14.82;85.89
73842;BME280;62184;52.006;5.924;2023-11-21T00:57:51;100341.69;;;14.86;86.23
73842;BME280;62184;52.006;5.924;2023-11-21T01:00:18;100339.63;;;14.91;86.12
73842;BME280;62184;52.006;5.924;2023-11-21T01:02:44;100347.41;;;14.98;86.07
73842;BME280;62184;52.006;5.924;2023-11-21T01:05:11;100351.50;;;15.05;86.15
73842;BME280;62184;52.006;5.924;2023-11-21T01:07:37;100358.31;;;15.12;85.98
73842;BME280;62184;52.006;5.924;2023-11-21T01:10:04;100355.63;;;15.12;86.26
73842;BME280;62184;52.006;5.924;2023-11-21T01:12:34;100353.72;;;15.14;86.00
73842;BME280;62184;52.006;5.924;2023-11-21T01:15:00;100359.81;;;15.17;85.79
73842;BME280;62184;52.006;5.924;2023-11-21T01:17:27;100363.22;;;15.21;86.11
73842;BME280;62184;52.006;5.924;2023-11-21T01:19:53;100370.16;;;15.25;86.10
73842;BME280;62184;52.006;5.924;2023-11-21T01:22:19;100370.09;;;15.26;86.29
73842;BME280;62184;52.006;5.924;2023-11-21T01:24:46;100375.25;;;15.31;85.96
73842;BME280;62184;52.006;5.924;2023-11-21T01:27:12;100381.59;;;15.30;85.79
73842;BME280;62184;52.006;5.924;2023-11-21T01:29:41;100380.63;;;15.31;85.91
73842;BME280;62184;52.006;5.924;2023-11-21T01:32:08;100389.34;;;15.36;85.71
73842;BME280;62184;52.006;5.924;2023-11-21T01:34:34;100381.19;;;15.38;86.08
73842;BME280;62184;52.006;5.924;2023-11-21T01:37:00;100392.75;;;15.40;85.74
73842;BME280;62184;52.006;5.924;2023-11-21T01:39:28;100381.81;;;15.43;86.25
73842;BME280;62184;52.006;5.924;2023-11-21T01:41:54;100383.31;;;15.48;85.83
73842;BME280;62184;52.006;5.924;2023-11-21T01:44:20;100386.63;;;15.53;86.23
73842;BME280;62184;52.006;5.924;2023-11-21T01:46:50;100379.44;;;15.54;86.02
73842;BME280;62184;52.006;5.924;2023-11-21T01:49:17;100384.97;;;15.51;85.56
73842;BME280;62184;52.006;5.924;2023-11-21T01:51:46;100379.59;;;15.51;85.87
73842;BME280;62184;52.006;5.924;2023-11-21T01:54:15;100385.91;;;15.50;85.72
73842;BME280;62184;52.006;5.924;2023-11-21T01:56:44;100388.53;;;15.51;85.58
73842;BME280;62184;52.006;5.924;2023-11-21T01:59:13;100380.38;;;15.53;86.09
73842;BME280;62184;52.006;5.924;2023-11-21T02:01:44;100384.75;;;15.55;85.97
73842;BME280;62184;52.006;5.924;2023-11-21T02:04:13;100382.81;;;15.57;85.95
73842;BME280;62184;52.006;5.924;2023-11-21T02:06:40;100386.56;;;15.55;85.53
73842;BME280;62184;52.006;5.924;2023-11-21T02:09:06;100386.84;;;15.49;85.54
73842;BME280;62184;52.006;5.924;2023-11-21T02:11:33;100389.66;;;15.47;85.66
73842;BME280;62184;52.006;5.924;2023-11-21T02:13:59;100387.03;;;15.46;85.47
73842;BME280;62184;52.006;5.924;2023-11-21T02:16:26;100399.84;;;15.41;85.78
73842;BME280;62184;52.006;5.924;2023-11-21T02:18:53;100400.81;;;15.40;85.48
73842;BME280;62184;52.006;5.924;2023-11-21T02:21:22;100400.91;;;15.38;85.62
73842;BME280;62184;52.006;5.924;2023-11-21T02:23:53;100402.78;;;15.36;85.43
73842;BME280;62184;52.006;5.924;2023-11-21T02:26:19;100410.00;;;15.36;85.47
73842;BME280;62184;52.006;5.924;2023-11-21T02:28:46;100410.78;;;15.38;85.67
73842;BME280;62184;52.006;5.924;2023-11-21T02:31:12;100409.91;;;15.37;85.44
73842;BME280;62184;52.006;5.924;2023-11-21T02:33:38;100414.44;;;15.37;85.60
73842;BME280;62184;52.006;5.924;2023-11-21T02:36:05;100418.00;;;15.37;85.53
73842;BME280;62184;52.006;5.924;2023-11-21T02:38:32;100413.47;;;15.38;85.56
73842;BME280;62184;52.006;5.924;2023-11-21T02:41:01;100417.03;;;15.38;85.79
73842;BME280;62184;52.006;5.924;2023-11-21T02:43:27;100419.81;;;15.37;85.42
73842;BME280;62184;52.006;5.924;2023-11-21T02:45:54;100418.94;;;15.36;85.47
73842;BME280;62184;52.006;5.924;2023-11-21T02:48:20;100412.06;;;15.30;85.38
73842;BME280;62184;52.006;5.924;2023-11-21T02:50:47;100416.84;;;15.24;85.25
73842;BME280;62184;52.006;5.924;2023-11-21T02:53:13;100429.47;;;15.23;85.02
73842;BME280;62184;52.006;5.924;2023-11-21T02:55:39;100416.09;;;15.22;84.96
73842;BME280;62184;52.006;5.924;2023-11-21T02:58:08;100421.47;;;15.22;85.25
73842;BME280;62184;52.006;5.924;2023-11-21T03:00:35;100416.22;;;15.19;85.09
73842;BME280;62184;52.006;5.924;2023-11-21T03:03:01;100410.91;;;15.17;85.03
73842;BME280;62184;52.006;5.924;2023-11-21T03:05:28;100417.25;;;15.16;84.81
73842;BME280;62184;52.006;5.924;2023-11-21T03:07:54;100421.59;;;15.19;85.09
73842;BME280;62184;52.006;5.924;2023-11-21T03:10:20;100416.97;;;15.22;85.04
73842;BME280;62184;52.006;5.924;2023-11-21T03:12:47;100416.78;;;15.25;85.09
73842;BME280;62184;52.006;5.924;2023-11-21T03:15:16;100414.97;;;15.26;85.03
73842;BME280;62184;52.006;5.924;2023-11-21T03:17:42;100422.03;;;15.28;84.94
73842;BME280;62184;52.006;5.924;2023-11-21T03:20:10;100426.53;;;15.28;84.80
73842;BME280;62184;52.006;5.924;2023-11-21T03:22:37;100430.16;;;15.27;84.90
73842;BME280;62184;52.006;5.924;2023-11-21T03:25:04;100423.03;;;15.26;85.10
73842;BME280;62184;52.006;5.924;2023-11-21T03:27:31;100430.25;;;15.25;84.63
73842;BME280;62184;52.006;5.924;2023-11-21T03:29:58;100440.13;;;15.25;85.02
73842;BME280;62184;52.006;5.924;2023-11-21T03:32:27;100430.31;;;15.24;84.59
73842;BME280;62184;52.006;5.924;2023-11-21T03:34:54;100439.19;;;15.26;84.97
73842;BME280;62184;52.006;5.924;2023-11-21T03:37:22;100445.50;;;15.25;84.87
73842;BME280;62184;52.006;5.924;2023-11-21T03:39:48;100444.41;;;15.29;84.72
73842;BME280;62184;52.006;5.924;2023-11-21T03:42:14;100443.31;;;15.33;85.07
73842;BME280;62184;52.006;5.924;2023-11-21T03:44:41;100446.78;;;15.35;84.78
73842;BME280;62184;52.006;5.924;2023-11-21T03:47:07;100446.56;;;15.40;84.67
73842;BME280;62184;52.006;5.924;2023-11-21T03:49:37;100442.69;;;15.45;84.57
73842;BME280;62184;52.006;5.924;2023-11-21T03:52:05;100438.09;;;15.47;84.95
73842;BME280;62184;52.006;5.924;2023-11-21T03:54:31;100443.38;;;15.49;84.54
73842;BME280;62184;52.006;5.924;2023-11-21T03:56:58;100438.88;;;15.49;84.81
73842;BME280;62184;52.006;5.924;2023-11-21T03:59:24;100440.53;;;15.52;84.58
73842;BME280;62184;52.006;5.924;2023-11-21T04:01:50;100436.84;;;15.54;84.85
73842;BME280;62184;52.006;5.924;2023-11-21T04:04:17;100444.16;;;15.69;84.29
73842;BME280;62184;52.006;5.924;2023-11-21T04:06:46;100447.28;;;15.60;85.02
73842;BME280;62184;52.006;5.924;2023-11-21T04:09:12;100453.69;;;15.58;84.88
73842;BME280;62184;52.006;5.924;2023-11-21T04:11:39;100455.50;;;15.57;84.83
73842;BME280;62184;52.006;5.924;2023-11-21T04:14:05;100461.06;;;15.54;84.45
73842;BME280;62184;52.006;5.924;2023-11-21T04:16:31;100463.03;;;15.51;84.52
73842;BME280;62184;52.006;5.924;2023-11-21T04:18:58;100470.56;;;15.44;84.68
73842;BME280;62184;52.006;5.924;2023-11-21T04:21:24;100455.41;;;15.42;84.41
73842;BME280;62184;52.006;5.924;2023-11-21T04:23:53;100464.38;;;15.42;84.58
73842;BME280;62184;52.006;5.924;2023-11-21T04:26:20;100474.03;;;15.46;84.68
73842;BME280;62184;52.006;5.924;2023-11-21T04:28:46;100480.03;;;15.51;84.81
73842;BME280;62184;52.006;5.924;2023-11-21T04:31:12;100485.22;;;15.56;84.73
73842;BME280;62184;52.006;5.924;2023-11-21T04:33:39;100484.09;;;15.60;85.22
73842;BME280;62184;52.006;5.924;2023-11-21T04:36:06;100486.69;;;15.63;84.97
73842;BME280;62184;52.006;5.924;2023-11-21T04:38:33;100491.19;;;15.62;85.24
73842;BME280;62184;52.006;5.924;2023-11-21T04:41:02;100497.50;;;15.61;84.99
73842;BME280;62184;52.006;5.924;2023-11-21T04:43:28;100500.31;;;15.58;85.07
73842;BME280;62184;52.006;5.924;2023-11-21T04:45:55;100500.41;;;15.57;85.25
73842;BME280;62184;52.006;5.924;2023-11-21T04:48:21;100504.81;;;15.58;85.20
73842;BME280;62184;52.006;5.924;2023-11-21T04:50:48;100508.31;;;15.60;85.05
73842;BME280;62184;52.006;5.924;2023-11-21T04:53:14;100509.19;;;15.60;85.21
73842;BME280;62184;52.006;5.924;2023-11-21T04:55:41;100516.34;;;15.61;85.19
73842;BME280;62184;52.006;5.924;2023-11-21T04:58:10;100515.41;;;15.62;85.26
73842;BME280;62184;52.006;5.924;2023-11-21T05:00:36;100523.50;;;15.62;84.90
73842;BME280;62184;52.006;5.924;2023-11-21T05:03:03;100524.19;;;15.66;85.01
73842;BME280;62184;52.006;5.924;2023-11-21T05:05:30;100521.66;;;15.63;85.21
73842;BME280;62184;52.006;5.924;2023-11-21T05:07:56;100521.75;;;15.61;85.21
73842;BME280;62184;52.006;5.924;2023-11-21T05:10:22;100527.25;;;15.58;84.90
73842;BME280;62184;52.006;5.924;2023-11-21T05:12:49;100526.47;;;15.56;85.08
73842;BME280;62184;52.006;5.924;2023-11-21T05:15:18;100528.56;;;15.50;84.77
73842;BME280;62184;52.006;5.924;2023-11-21T05:17:45;100525.25;;;15.45;84.93
73842;BME280;62184;52.006;5.924;2023-11-21T05:20:13;100533.56;;;15.40;84.79
73842;BME280;62184;52.006;5.924;2023-11-21T05:22:40;100531.97;;;15.36;84.76
73842;BME280;62184;52.006;5.924;2023-11-21T05:25:07;100535.72;;;15.32;84.83
73842;BME280;62184;52.006;5.924;2023-11-21T05:27:34;100543.03;;;15.30;84.73
73842;BME280;62184;52.006;5.924;2023-11-21T05:30:01;100545.78;;;15.28;84.79
73842;BME280;62184;52.006;5.924;2023-11-21T05:32:30;100542.97;;;15.31;84.86
73842;BME280;62184;52.006;5.924;2023-11-21T05:34:57;100549.19;;;15.32;84.56
73842;BME280;62184;52.006;5.924;2023-11-21T05:37:23;100548.41;;;15.30;85.13
73842;BME280;62184;52.006;5.924;2023-11-21T05:39:49;100552.06;;;15.29;84.63
73842;BME280;62184;52.006;5.924;2023-11-21T05:42:16;100559.25;;;15.28;84.71
73842;BME280;62184;52.006;5.924;2023-11-21T05:44:42;100554.75;;;15.29;84.51
73842;BME280;62184;52.006;5.924;2023-11-21T05:47:09;100555.56;;;15.31;84.57
73842;BME280;62184;52.006;5.924;2023-11-21T05:49:38;100560.94;;;15.31;84.72
73842;BME280;62184;52.006;5.924;2023-11-21T05:52:05;100564.25;;;15.36;84.45
73842;BME280;62184;52.006;5.924;2023-11-21T05:54:31;100571.38;;;15.37;84.71
73842;BME280;62184;52.006;5.924;2023-11-21T05:56:58;100581.22;;;15.38;84.60
73842;BME280;62184;52.006;5.924;2023-11-21T05:59:25;100577.84;;;15.33;84.77
73842;BME280;62184;52.006;5.924;2023-11-21T06:01:51;100588.25;;;15.41;84.80
73842;BME280;62184;52.006;5.924;2023-11-21T06:04:17;100585.41;;;15.44;84.65
73842;BME280;62184;52.006;5.924;2023-11-21T06:06:46;100591.53;;;15.47;84.80
73842;BME280;62184;52.006;5.924;2023-11-21T06:09:13;100590.66;;;15.47;84.81
73842;BME280;62184;52.006;5.924;2023-11-21T06:11:39;100591.53;;;15.47;84.75
73842;BME280;62184;52.006;5.924;2023-11-21T06:14:06;100591.44;;;15.49;84.47
73842;BME280;62184;52.006;5.924;2023-11-21T06:16:32;100596.91;;;15.47;84.63
73842;BME280;62184;52.006;5.924;2023-11-21T06:18:58;100599.59;;;15.47;84.46
73842;BME280;62184;52.006;5.924;2023-11-21T06:21:25;100605.13;;;15.44;84.54
73842;BME280;62184;52.006;5.924;2023-11-21T06:23:54;100599.09;;;15.39;84.47
73842;BME280;62184;52.006;5.924;2023-11-21T06:26:20;100609.88;;;15.39;84.73
73842;BME280;62184;52.006;5.924;2023-11-21T06:28:46;100610.06;;;15.35;84.20
73842;BME280;62184;52.006;5.924;2023-11-21T06:31:13;100613.63;;;15.35;84.40
73842;BME280;62184;52.006;5.924;2023-11-21T06:33:39;100611.75;;;15.37;84.25
73842;BME280;62184;52.006;5.924;2023-11-21T06:36:07;100620.63;;;15.39;84.39
73842;BME280;62184;52.006;5.924;2023-11-21T06:38:34;100622.22;;;15.43;84.42
73842;BME280;62184;52.006;5.924;2023-11-21T06:41:04;100623.72;;;15.49;84.51
73842;BME280;62184;52.006;5.924;2023-11-21T06:43:32;100620.19;;;15.48;84.26
73842;BME280;62184;52.006;5.924;2023-11-21T06:45:58;100634.50;;;15.49;84.06
73842;BME280;62184;52.006;5.924;2023-11-21T06:48:25;100627.47;;;15.46;84.35
73842;BME280;62184;52.006;5.924;2023-11-21T06:50:51;100631.97;;;15.46;84.23
73842;BME280;62184;52.006;5.924;2023-11-21T06:53:17;100640.25;;;15.41;84.21
73842;BME280;62184;52.006;5.924;2023-11-21T06:55:44;100634.09;;;15.39;84.00
73842;BME280;62184;52.006;5.924;2023-11-21T06:58:13;100640.25;;;15.41;84.06
73842;BME280;62184;52.006;5.924;2023-11-21T07:00:39;100644.56;;;15.45;84.13
73842;BME280;62184;52.006;5.924;2023-11-21T07:03:06;100643.38;;;15.51;84.28
73842;BME280;62184;52.006;5.924;2023-11-21T07:05:32;100637.72;;;15.57;84.07
73842;BME280;62184;52.006;5.924;2023-11-21T07:07:58;100643.81;;;15.60;84.25
73842;BME280;62184;52.006;5.924;2023-11-21T07:10:25;100644.66;;;15.62;83.95
73842;BME280;62184;52.006;5.924;2023-11-21T07:12:51;100657.16;;;15.63;83.96
73842;BME280;62184;52.006;5.924;2023-11-21T07:15:20;100672.22;;;15.67;84.09
73842;BME280;62184;52.006;5.924;2023-11-21T07:17:47;100668.56;;;15.68;84.27
73842;BME280;62184;52.006;5.924;2023-11-21T07:20:13;100670.31;;;15.69;84.01
73842;BME280;62184;52.006;5.924;2023-11-21T07:22:40;100686.53;;;15.68;84.00
73842;BME280;62184;52.006;5.924;2023-11-21T07:25:07;100677.59;;;15.67;84.14
73842;BME280;62184;52.006;5.924;2023-11-21T07:27:33;100696.69;;;15.63;83.66
73842;BME280;62184;52.006;5.924;2023-11-21T07:30:00;100692.34;;;15.59;83.65
73842;BME280;62184;52.006;5.924;2023-11-21T07:32:29;100697.00;;;15.55;84.06
73842;BME280;62184;52.006;5.924;2023-11-21T07:34:55;100693.38;;;15.56;83.78
73842;BME280;62184;52.006;5.924;2023-11-21T07:37:21;100696.06;;;15.56;84.13
73842;BME280;62184;52.006;5.924;2023-11-21T07:39:48;100697.78;;;15.57;83.64
73842;BME280;62184;52.006;5.924;2023-11-21T07:42:14;100707.56;;;15.60;84.04
73842;BME280;62184;52.006;5.924;2023-11-21T07:44:41;100712.06;;;15.59;83.42
73842;BME280;62184;52.006;5.924;2023-11-21T07:47:07;100706.56;;;15.62;83.76
73842;BME280;62184;52.006;5.924;2023-11-21T07:49:36;100719.59;;;15.72;83.68
73842;BME280;62184;52.006;5.924;2023-11-21T07:52:03;100712.97;;;15.79;83.87
73842;BME280;62184;52.006;5.924;2023-11-21T07:54:29;100723.44;;;15.85;83.97
73842;BME280;62184;52.006;5.924;2023-11-21T07:56:56;100728.69;;;15.88;83.98
73842;BME280;62184;52.006;5.924;2023-11-21T07:59:22;100729.13;;;15.97;83.92
73842;BME280;62184;52.006;5.924;2023-11-21T08:01:48;100733.88;;;16.10;84.21
73842;BME280;62184;52.006;5.924;2023-11-21T08:04:15;100735.19;;;16.20;83.95
73842;BME280;62184;52.006;5.924;2023-11-21T08:06:44;100733.22;;;16.23;83.71
73842;BME280;62184;52.006;5.924;2023-11-21T08:09:10;100741.00;;;16.29;84.28
73842;BME280;62184;52.006;5.924;2023-11-21T08:11:37;100746.94;;;16.36;83.98
73842;BME280;62184;52.006;5.924;2023-11-21T08:14:03;100759.22;;;16.41;84.28
73842;BME280;62184;52.006;5.924;2023-11-21T08:16:30;100758.28;;;16.42;84.26
73842;BME280;62184;52.006;5.924;2023-11-21T08:18:56;100762.91;;;16.40;83.75
73842;BME280;62184;52.006;5.924;2023-11-21T08:21:22;100770.75;;;16.45;83.89
73842;BME280;62184;52.006;5.924;2023-11-21T08:23:51;100764.34;;;16.48;83.92
73842;BME280;62184;52.006;5.924;2023-11-21T08:26:18;100778.75;;;16.47;84.29
73842;BME280;62184;52.006;5.924;2023-11-21T08:28:44;100780.66;;;16.44;84.46
73842;BME280;62184;52.006;5.924;2023-11-21T08:31:11;100789.28;;;16.51;83.96
73842;BME280;62184;52.006;5.924;2023-11-21T08:33:37;100789.09;;;16.56;84.03
73842;BME280;62184;52.006;5.924;2023-11-21T08:36:07;100797.19;;;16.56;83.86
73842;BME280;62184;52.006;5.924;2023-11-21T08:38:33;100793.25;;;16.63;83.32
73842;BME280;62184;52.006;5.924;2023-11-21T08:41:04;100800.22;;;16.67;83.23
73842;BME280;62184;52.006;5.924;2023-11-21T08:43:31;100798.25;;;16.70;83.29
73842;BME280;62184;52.006;5.924;2023-11-21T08:45:58;100803.56;;;16.72;82.91
73842;BME280;62184;52.006;5.924;2023-11-21T08:48:24;100798.97;;;16.74;83.18
73842;BME280;62184;52.006;5.924;2023-11-21T08:50:51;100801.19;;;16.83;83.19
73842;BME280;62184;52.006;5.924;2023-11-21T08:53:17;100806.09;;;16.92;83.45
73842;BME280;62184;52.006;5.924;2023-11-21T08:55:43;100802.13;;;16.99;83.20
73842;BME280;62184;52.006;5.924;2023-11-21T08:58:12;100809.75;;;17.08;83.19
73842;BME280;62184;52.006;5.924;2023-11-21T09:00:39;100806.75;;;17.14;83.29
73842;BME280;62184;52.006;5.924;2023-11-21T09:03:06;100814.59;;;17.19;83.02
73842;BME280;62184;52.006;5.924;2023-11-21T09:05:32;100815.00;;;17.11;83.42
73842;BME280;62184;52.006;5.924;2023-11-21T09:07:59;100816.97;;;17.08;83.40
73842;BME280;62184;52.006;5.924;2023-11-21T09:10:25;100828.03;;;17.03;83.21
73842;BME280;62184;52.006;5.924;2023-11-21T09:12:52;100825.19;;;17.06;83.27
73842;BME280;62184;52.006;5.924;2023-11-21T09:15:21;100838.41;;;17.11;83.11
73842;BME280;62184;52.006;5.924;2023-11-21T09:17:48;100843.47;;;17.17;83.27
73842;BME280;62184;52.006;5.924;2023-11-21T09:20:14;100848.00;;;17.16;83.33
73842;BME280;62184;52.006;5.924;2023-11-21T09:22:41;100844.63;;;17.13;83.26
73842;BME280;62184;52.006;5.924;2023-11-21T09:25:08;100846.59;;;17.09;82.55
73842;BME280;62184;52.006;5.924;2023-11-21T09:27:35;100854.94;;;17.22;82.26
73842;BME280;62184;52.006;5.924;2023-11-21T09:30:01;100853.66;;;17.29;82.60
73842;BME280;62184;52.006;5.924;2023-11-21T09:32:30;100864.38;;;17.31;82.59
73842;BME280;62184;52.006;5.924;2023-11-21T09:34:57;100866.44;;;17.26;82.29
73842;BME280;62184;52.006;5.924;2023-11-21T09:37:23;100876.34;;;17.25;82.39
73842;BME280;62184;52.006;5.924;2023-11-21T09:39:50;100872.97;;;17.22;82.53
73842;BME280;62184;52.006;5.924;2023-11-21T09:42:20;100877.06;;;17.11;82.10
73842;BME280;62184;52.006;5.924;2023-11-21T09:44:56;100882.13;;;17.00;81.64
73842;BME280;62184;52.006;5.924;2023-11-21T09:47:32;100881.03;;;16.87;81.85
73842;BME280;62184;52.006;5.924;2023-11-21T09:50:01;100891.41;;;16.77;81.63
73842;BME280;62184;52.006;5.924;2023-11-21T09:52:29;100898.59;;;16.77;81.96
73842;BME280;62184;52.006;5.924;2023-11-21T09:54:58;100898.78;;;16.74;81.82
73842;BME280;62184;52.006;5.924;2023-11-21T09:57:26;100901.69;;;16.69;81.87
73842;BME280;62184;52.006;5.924;2023-11-21T09:59:55;100904.75;;;16.62;81.49
73842;BME280;62184;52.006;5.924;2023-11-21T10:02:22;100905.69;;;16.61;82.19
73842;BME280;62184;52.006;5.924;2023-11-21T10:04:55;100903.59;;;16.67;82.60
73842;BME280;62184;52.006;5.924;2023-11-21T10:07:21;100903.88;;;16.80;82.38
73842;BME280;62184;52.006;5.924;2023-11-21T10:09:51;100913.25;;;16.90;82.10
73842;BME280;62184;52.006;5.924;2023-11-21T10:12:19;100913.09;;;16.93;82.24
73842;BME280;62184;52.006;5.924;2023-11-21T10:14:48;100916.66;;;16.94;81.92
73842;BME280;62184;52.006;5.924;2023-11-21T10:17:17;100918.66;;;16.90;82.07
73842;BME280;62184;52.006;5.924;2023-11-21T10:19:46;100918.72;;;16.89;82.00
73842;BME280;62184;52.006;5.924;2023-11-21T10:22:17;100929.03;;;16.62;82.64
73842;BME280;62184;52.006;5.924;2023-11-21T10:24:43;100934.19;;;16.48;82.29
73842;BME280;62184;52.006;5.924;2023-11-21T10:27:10;100929.25;;;16.38;82.63
73842;BME280;62184;52.006;5.924;2023-11-21T10:29:36;100939.28;;;16.35;82.41
73842;BME280;62184;52.006;5.924;2023-11-21T10:32:03;100937.38;;;16.37;82.24
73842;BME280;62184;52.006;5.924;2023-11-21T10:34:30;100936.28;;;16.41;82.58
73842;BME280;62184;52.006;5.924;2023-11-21T10:36:57;100931.72;;;16.62;82.53
73842;BME280;62184;52.006;5.924;2023-11-21T10:39:26;100929.13;;;16.59;83.19
73842;BME280;62184;52.006;5.924;2023-11-21T10:41:54;100941.56;;;16.63;83.16
73842;BME280;62184;52.006;5.924;2023-11-21T10:44:21;100943.03;;;16.70;83.09
73842;BME280;62184;52.006;5.924;2023-11-21T10:46:48;100945.41;;;16.76;83.06
73842;BME280;62184;52.006;5.924;2023-11-21T10:49:15;100950.81;;;16.76;82.52
73842;BME280;62184;52.006;5.924;2023-11-21T10:51:43;100961.75;;;16.73;82.73
73842;BME280;62184;52.006;5.924;2023-11-21T10:54:10;100956.50;;;16.70;82.55
73842;BME280;62184;52.006;5.924;2023-11-21T10:56:39;100964.66;;;16.68;82.51
73842;BME280;62184;52.006;5.924;2023-11-21T10:59:08;100957.84;;;16.60;82.13
73842;BME280;62184;52.006;5.924;2023-11-21T11:01:36;100965.59;;;16.49;81.83
73842;BME280;62184;52.006;5.924;2023-11-21T11:04:06;100970.31;;;16.43;82.34
73842;BME280;62184;52.006;5.924;2023-11-21T11:06:34;100972.38;;;16.38;82.12
73842;BME280;62184;52.006;5.924;2023-11-21T11:09:01;100984.28;;;16.33;81.71
73842;BME280;62184;52.006;5.924;2023-11-21T11:11:28;100991.28;;;16.18;81.76
73842;BME280;62184;52.006;5.924;2023-11-21T11:13:59;100996.19;;;16.08;81.45
73842;BME280;62184;52.006;5.924;2023-11-21T11:16:26;100995.31;;;16.08;81.48
73842;BME280;62184;52.006;5.924;2023-11-21T11:18:54;100998.00;;;16.08;81.49
73842;BME280;62184;52.006;5.924;2023-11-21T11:21:27;101006.97;;;16.08;81.32
73842;BME280;62184;52.006;5.924;2023-11-21T11:24:16;101005.09;;;16.11;81.41
73842;BME280;62184;52.006;5.924;2023-11-21T11:26:58;101006.97;;;16.08;81.36
73842;BME280;62184;52.006;5.924;2023-11-21T11:29:41;101008.13;;;16.03;81.11
73842;BME280;62184;52.006;5.924;2023-11-21T11:32:21;101019.78;;;16.03;80.87
73842;BME280;62184;52.006;5.924;2023-11-21T11:35:04;101013.94;;;15.94;80.28
73842;BME280;62184;52.006;5.924;2023-11-21T11:37:36;101020.00;;;15.79;78.92
73842;BME280;62184;52.006;5.924;2023-11-21T11:40:05;101015.66;;;15.75;79.74
73842;BME280;62184;52.006;5.924;2023-11-21T11:42:32;101022.81;;;15.76;80.83
73842;BME280;62184;52.006;5.924;2023-11-21T11:45:02;101018.44;;;15.73;80.46
73842;BME280;62184;52.006;5.924;2023-11-21T11:47:43;101023.63;;;15.78;80.84
73842;BME280;62184;52.006;5.924;2023-11-21T11:50:11;101021.75;;;15.80;80.84
73842;BME280;62184;52.006;5.924;2023-11-21T11:52:40;101019.06;;;15.80;81.05
73842;BME280;62184;52.006;5.924;2023-11-21T11:55:08;101029.44;;;15.89;81.06
73842;BME280;62184;52.006;5.924;2023-11-21T11:57:36;101032.66;;;15.97;80.48
73842;BME280;62184;52.006;5.924;2023-11-21T12:00:19;101030.63;;;16.02;80.20
73842;BME280;62184;52.006;5.924;2023-11-21T12:02:49;101032.25;;;16.06;80.98
73842;BME280;62184;52.006;5.924;2023-11-21T12:05:18;101034.97;;;16.06;80.21
73842;BME280;62184;52.006;5.924;2023-11-21T12:07:46;101040.59;;;16.00;80.38
73842;BME280;62184;52.006;5.924;2023-11-21T12:10:16;101050.50;;;15.99;80.18
73842;BME280;62184;52.006;5.924;2023-11-21T12:12:45;101046.78;;;16.02;80.19
73842;BME280;62184;52.006;5.924;2023-11-21T12:15:12;101056.75;;;16.00;80.12
73842;BME280;62184;52.006;5.924;2023-11-21T12:17:43;101053.53;;;15.92;79.72
73842;BME280;62184;52.006;5.924;2023-11-21T12:20:11;101066.38;;;15.85;79.31
73842;BME280;62184;52.006;5.924;2023-11-21T12:22:39;101072.94;;;15.80;78.88
73842;BME280;62184;52.006;5.924;2023-11-21T12:25:08;101077.63;;;15.75;79.27
73842;BME280;62184;52.006;5.924;2023-11-21T12:27:34;101075.31;;;15.65;78.72
73842;BME280;62184;52.006;5.924;2023-11-21T12:30:01;101080.25;;;15.54;78.94
73842;BME280;62184;52.006;5.924;2023-11-21T12:32:27;101080.38;;;15.51;78.91
73842;BME280;62184;52.006;5.924;2023-11-21T12:34:56;101083.25;;;15.47;78.41
73842;BME280;62184;52.006;5.924;2023-11-21T12:37:22;101093.97;;;15.48;79.01
73842;BME280;62184;52.006;5.924;2023-11-21T12:39:49;101097.44;;;15.50;79.10
73842;BME280;62184;52.006;5.924;2023-11-21T12:42:16;101097.59;;;15.47;78.71
73842;BME280;62184;52.006;5.924;2023-11-21T12:44:45;101105.16;;;15.38;79.21
73842;BME280;62184;52.006;5.924;2023-11-21T12:47:16;101101.03;;;15.29;78.27
73842;BME280;62184;52.006;5.924;2023-11-21T12:49:43;101100.22;;;15.27;78.76
73842;BME280;62184;52.006;5.924;2023-11-21T12:52:13;101102.66;;;15.33;78.91